Time;durP1;ratioP1;P1;durP2;ratioP2;P2;SDS_P1;SDS_P2;PMS_P1;PMS_P2;Temp;Humidity;BMP_temperature;BMP_pressure;BME280_temperature;BME280_humidity;BME280_pressure;Samples;Min_cycle;Max_cycle;Signal;HPM_P1;HPM_P2
2021/12/12 00:00:27;;;;;;;34.17;9.87;;;;;;;-142.75;100.00;78350.19;5046848;28;20948;-66
2021/12/12 00:02:58;;;;;;;27.67;9.00;;;;;;;-142.75;100.00;78346.25;5045656;28;20040;-66
2021/12/12 00:05:37;;;;;;;28.53;8.97;;;;;;;-142.75;100.00;78336.41;5048305;28;20025;-66
2021/12/12 00:08:04;;;;;;;27.67;8.80;;;;;;;-142.75;100.00;78346.25;5069455;28;20055;-68
2021/12/12 00:10:33;;;;;;;22.57;8.70;;;;;;;-142.75;100.00;78342.31;5070281;28;20035;-68
2021/12/12 00:13:04;;;;;;;25.67;9.43;;;;;;;-142.75;100.00;78338.38;5051261;28;20041;-68
2021/12/12 00:15:30;;;;;;;21.97;8.30;;;;;;;-142.75;100.00;78362.00;5050765;28;20448;-66
2021/12/12 00:17:56;;;;;;;24.02;8.68;;;;;;;-142.75;100.00;78344.28;5050702;28;20013;-68
2021/12/12 00:20:25;;;;;;;26.38;8.38;;;;;;;-142.75;100.00;78338.38;5032478;28;20051;-68
2021/12/12 00:22:52;;;;;;;22.77;9.33;;;;;;;-142.75;100.00;78338.38;5051167;28;20051;-66
2021/12/12 00:25:18;;;;;;;22.10;9.03;;;;;;;-142.75;100.00;78342.31;5050920;28;20387;-65
2021/12/12 00:27:44;;;;;;;22.70;9.40;;;;;;;-142.75;100.00;78340.34;5048822;28;20029;-65
2021/12/12 00:30:11;;;;;;;32.13;11.05;;;;;;;-142.75;100.00;78342.31;5049962;28;20033;-65
2021/12/12 00:32:39;;;;;;;22.13;9.40;;;;;;;-142.75;100.00;78340.34;5049984;28;20032;-66
2021/12/12 00:35:08;;;;;;;26.50;8.70;;;;;;;-142.75;100.00;78332.47;5050502;28;20024;-67
2021/12/12 00:37:34;;;;;;;24.53;10.30;;;;;;;-142.75;100.00;78346.25;5050293;28;20021;-68
2021/12/12 00:40:06;;;;;;;18.88;8.65;;;;;;;-142.75;100.00;78332.47;5049579;28;20098;-68
2021/12/12 00:42:35;;;;;;;26.20;9.40;;;;;;;-142.75;100.00;78314.75;5050265;28;20126;-67
2021/12/12 00:45:08;;;;;;;23.93;10.00;;;;;;;-142.75;100.00;78316.72;5050180;28;20116;-68
2021/12/12 00:47:33;;;;;;;24.50;9.37;;;;;;;-142.75;100.00;78318.69;5048008;28;20025;-68
2021/12/12 00:49:59;;;;;;;26.13;9.50;;;;;;;-142.75;100.00;78306.88;5049534;28;20090;-67
2021/12/12 00:52:24;;;;;;;30.42;9.57;;;;;;;-142.75;100.00;78312.78;5050147;28;20044;-68
2021/12/12 00:54:51;;;;;;;25.77;9.40;;;;;;;-142.75;100.00;78320.66;5045272;28;20032;-66
2021/12/12 00:57:19;;;;;;;29.93;9.60;;;;;;;-142.75;100.00;78312.78;5050909;28;20055;-66
2021/12/12 00:59:45;;;;;;;24.13;9.03;;;;;;;-142.75;100.00;78308.84;5048855;28;20071;-68
2021/12/12 01:02:14;;;;;;;;;;;;;;;-142.75;100.00;78322.63;5051263;28;20028;-66
2021/12/12 01:04:43;;;;;;;22.07;7.97;;;;;;;-142.75;100.00;78310.81;5050420;28;20298;-66
2021/12/12 01:07:14;;;;;;;24.40;8.20;;;;;;;-142.75;100.00;78300.97;5070527;28;20059;-66
2021/12/12 01:09:46;;;;;;;26.87;8.20;;;;;;;-142.75;100.00;78302.94;5069984;28;20127;-66
2021/12/12 01:12:16;;;;;;;24.87;8.40;;;;;;;-142.75;100.00;78310.81;5070904;28;20058;-65
2021/12/12 01:14:47;;;;;;;29.57;8.67;;;;;;;-142.75;100.00;78293.06;5070465;28;20020;-65
2021/12/12 01:17:19;;;;;;;23.80;8.33;;;;;;;-142.75;100.00;78295.06;5052565;28;20031;-66
2021/12/12 01:19:50;;;;;;;26.40;8.77;;;;;;;-142.75;100.00;78291.09;5068678;28;20490;-68
2021/12/12 01:22:23;;;;;;;22.47;7.80;;;;;;;-142.75;100.00;78287.16;5070618;28;20020;-69
2021/12/12 01:24:51;;;;;;;18.67;8.50;;;;;;;-142.75;100.00;78302.94;5070561;28;20020;-65
2021/12/12 01:27:18;;;;;;;22.20;8.57;;;;;;;-142.75;100.00;78291.09;5068890;28;20528;-64
2021/12/12 01:29:44;;;;;;;22.77;8.83;;;;;;;-142.75;100.00;78306.88;5069489;28;20402;-65
2021/12/12 01:32:23;;;;;;;27.67;8.50;;;;;;;-142.75;100.00;78299.00;5070386;28;20024;-64
2021/12/12 01:34:51;;;;;;;25.10;8.27;;;;;;;-142.75;100.00;78302.94;5070389;28;20040;-64
2021/12/12 01:39:53;;;;;;;24.20;7.77;;;;;;;-142.75;100.00;78300.97;5084694;22;20072;-66
2021/12/12 01:42:24;;;;;;;19.03;7.33;;;;;;;-142.75;100.00;78314.75;5050233;28;20060;-65
2021/12/12 01:45:11;;;;;;;22.73;8.20;;;;;;;-142.75;100.00;78295.06;5049636;28;20044;-65
2021/12/12 01:47:39;;;;;;;18.42;6.82;;;;;;;-142.75;100.00;78314.75;5049275;28;20025;-66
2021/12/12 01:50:10;;;;;;;26.93;8.90;;;;;;;-142.75;100.00;78295.06;5057828;28;20474;-66
2021/12/12 01:52:37;;;;;;;18.57;8.10;;;;;;;-142.75;100.00;78299.00;5070637;28;20028;-66
2021/12/12 01:55:28;;;;;;;20.60;8.80;;;;;;;-142.75;100.00;78300.97;5070079;28;20038;-67
2021/12/12 01:57:58;;;;;;;27.57;9.67;;;;;;;-142.75;100.00;78295.06;5051747;28;20028;-65
2021/12/12 02:00:38;;;;;;;21.10;8.77;;;;;;;-142.75;100.00;78300.97;5050835;28;20063;-65
2021/12/12 02:03:07;;;;;;;20.03;8.20;;;;;;;-142.75;100.00;78293.06;5070013;28;20040;-66
2021/12/12 02:05:33;;;;;;;24.27;10.30;;;;;;;-142.75;100.00;78291.09;5069589;28;20029;-66
2021/12/12 02:08:03;;;;;;;24.23;10.05;;;;;;;-142.75;100.00;78295.06;5051791;28;20043;-66
2021/12/12 02:10:38;;;;;;;27.87;10.17;;;;;;;-142.75;100.00;78291.09;5068912;28;20024;-66
2021/12/12 02:13:06;;;;;;;18.03;10.00;;;;;;;-142.75;100.00;78302.94;5069793;28;20032;-66
2021/12/12 02:15:35;;;;;;;20.50;10.80;;;;;;;-142.75;100.00;78289.13;5069657;28;20024;-66
2021/12/12 02:18:07;;;;;;;32.10;11.73;;;;;;;-142.75;100.00;78291.09;5051673;28;20436;-66
2021/12/12 02:20:40;;;;;;;22.63;11.53;;;;;;;-142.75;100.00;78291.09;5068723;28;20108;-66
2021/12/12 02:36:44;;;;;;;29.97;12.57;;;;;;;-142.75;100.00;78273.38;5069440;28;20533;-66
2021/12/12 02:39:20;;;;;;;25.70;12.77;;;;;;;-142.75;100.00;78269.44;5069147;28;20029;-66
2021/12/12 02:41:52;;;;;;;31.35;13.98;;;;;;;-142.75;100.00;78273.38;5068603;28;20016;-67
2021/12/12 02:44:22;;;;;;;26.97;12.50;;;;;;;-142.75;100.00;78255.66;5069579;28;20608;-66
2021/12/12 02:46:50;;;;;;;28.40;13.97;;;;;;;-142.75;100.00;78257.63;5051568;28;20028;-67
2021/12/12 02:49:38;;;;;;;29.13;13.83;;;;;;;-142.75;100.00;78239.91;5069011;28;20024;-66
2021/12/12 02:52:10;;;;;;;27.50;13.40;;;;;;;-142.75;100.00;78243.84;5051273;28;20024;-67
2021/12/12 02:54:36;;;;;;;31.63;13.47;;;;;;;-142.75;100.00;78234.00;5051263;28;20020;-66
2021/12/12 02:57:03;;;;;;;24.65;14.38;;;;;;;-142.75;100.00;78232.03;5051217;28;20020;-67
2021/12/12 02:59:29;;;;;;;26.37;13.23;;;;;;;-142.75;100.00;78230.06;5068889;28;20033;-66
2021/12/12 03:01:59;;;;;;;28.10;14.25;;;;;;;-142.75;100.00;78218.25;5068355;28;20032;-66
2021/12/12 03:04:25;;;;;;;32.03;14.00;;;;;;;-142.75;100.00;78220.22;5069106;28;20555;-66
2021/12/12 03:06:52;;;;;;;22.60;13.93;;;;;;;-142.75;100.00;78212.34;5069254;28;20501;-67
2021/12/12 03:09:24;;;;;;;27.67;13.43;;;;;;;-142.75;100.00;78218.25;5069296;28;20032;-67
2021/12/12 03:11:57;;;;;;;27.47;12.53;;;;;;;-142.75;100.00;78210.38;5050593;28;20056;-67
2021/12/12 03:14:22;;;;;;;27.63;13.27;;;;;;;-142.75;100.00;78208.41;5051041;28;20058;-66
2021/12/12 03:16:49;;;;;;;27.40;12.77;;;;;;;-142.75;100.00;78220.22;5069227;28;20436;-67
2021/12/12 03:19:19;;;;;;;19.83;12.17;;;;;;;-142.75;100.00;78220.22;5068738;28;20024;-67
2021/12/12 03:21:47;;;;;;;24.63;13.23;;;;;;;-142.75;100.00;78220.22;5050229;28;20028;-67
2021/12/12 03:24:19;;;;;;;26.07;14.70;;;;;;;-142.75;100.00;78220.22;5068940;28;20024;-67
2021/12/12 03:26:46;;;;;;;26.73;15.47;;;;;;;-142.75;100.00;78222.19;5068816;28;20027;-67
2021/12/12 03:29:12;;;;;;;24.97;14.20;;;;;;;-142.75;100.00;78218.25;5050685;28;20119;-67
2021/12/12 03:31:39;;;;;;;;;;;;;;;-142.75;100.00;78208.41;5050634;28;20024;-67
2021/12/12 03:34:11;;;;;;;23.13;13.43;;;;;;;-142.75;100.00;78220.22;5068985;28;19920;-67
2021/12/12 03:36:37;;;;;;;28.80;15.40;;;;;;;-142.75;100.00;78208.41;5068811;28;20021;-67
2021/12/12 03:39:16;;;;;;;30.10;16.50;;;;;;;-142.75;100.00;78196.59;5068567;28;20028;-67
2021/12/12 03:41:42;;;;;;;29.10;15.40;;;;;;;-142.75;100.00;78220.22;5050139;28;20502;-66
2021/12/12 03:44:12;;;;;;;34.38;16.77;;;;;;;-142.75;100.00;78202.50;5072449;28;20123;-67
2021/12/12 03:46:39;;;;;;;30.03;16.40;;;;;;;-142.75;100.00;78204.47;5072431;28;20457;-67
2021/12/12 03:49:07;;;;;;;32.43;17.97;;;;;;;-142.75;100.00;78202.50;5072323;28;20062;-67
2021/12/12 03:51:33;;;;;;;30.27;18.23;;;;;;;-142.75;100.00;78194.63;5069836;28;20025;-66
2021/12/12 03:53:59;;;;;;;36.93;18.50;;;;;;;-142.75;100.00;78196.59;5072366;28;20043;-66
2021/12/12 03:56:26;;;;;;;34.15;18.30;;;;;;;-142.75;100.00;78206.44;5072355;28;20021;-67
2021/12/12 03:58:53;;;;;;;35.97;19.40;;;;;;;-142.75;100.00;78216.28;5072082;28;20086;-66
2021/12/12 04:01:28;;;;;;;34.30;19.27;;;;;;;-142.75;100.00;78208.41;5071727;28;20064;-67
2021/12/12 04:03:55;;;;;;;35.50;20.30;;;;;;;-142.75;100.00;78204.47;5072005;28;20032;-66
2021/12/12 04:06:25;;;;;;;37.87;20.23;;;;;;;-142.75;100.00;78202.50;5072252;28;20482;-67
2021/12/12 04:08:51;;;;;;;34.17;19.80;;;;;;;-142.75;100.00;78200.53;5072282;28;20090;-66
2021/12/12 04:11:21;;;;;;;36.17;20.07;;;;;;;-142.75;100.00;78204.47;5071850;28;20041;-67
2021/12/12 04:13:49;;;;;;;36.33;20.77;;;;;;;-142.75;100.00;78204.47;5054089;28;20051;-67
2021/12/12 04:16:17;;;;;;;32.23;21.30;;;;;;;-142.75;100.00;78198.56;5051658;28;20031;-66
2021/12/12 04:18:43;;;;;;;39.27;20.77;;;;;;;-142.75;100.00;78192.66;5052706;28;20067;-67
2021/12/12 04:21:08;;;;;;;35.87;19.90;;;;;;;-142.75;100.00;78200.53;5071310;28;20146;-67
2021/12/12 04:23:36;;;;;;;32.88;19.98;;;;;;;-142.75;100.00;78200.53;5071805;28;20421;-67
2021/12/12 04:26:17;;;;;;;35.30;20.73;;;;;;;-142.75;100.00;78198.56;5071602;28;20494;-67
2021/12/12 04:28:43;;;;;;;32.30;20.73;;;;;;;-142.75;100.00;78196.59;5053720;28;20657;-67
2021/12/12 04:31:09;;;;;;;31.85;21.52;;;;;;;-142.75;100.00;78196.59;5052829;28;20116;-67
2021/12/12 04:33:34;;;;;;;37.38;21.83;;;;;;;-142.75;100.00;78178.84;5053645;28;20505;-66
2021/12/12 04:36:00;;;;;;;39.50;22.02;;;;;;;-142.75;100.00;78180.81;5071533;28;20028;-66
2021/12/12 04:38:26;;;;;;;35.40;21.93;;;;;;;-142.75;100.00;78184.78;5071340;28;20037;-66
2021/12/12 04:40:52;;;;;;;38.75;23.70;;;;;;;-142.75;100.00;78184.78;5070514;28;20047;-65
2021/12/12 04:43:17;;;;;;;48.22;24.08;;;;;;;-142.75;100.00;78184.78;5071718;28;20024;-67
2021/12/12 04:45:57;;;;;;;42.45;24.63;;;;;;;-142.75;100.00;78184.78;5071353;28;20541;-67
2021/12/12 04:51:39;;;;;;;50.00;25.50;;;;;;;-142.75;100.00;78182.81;5070684;28;20102;-66
2021/12/12 04:54:57;;;;;;;47.63;25.77;;;;;;;-142.75;100.00;78174.91;5071193;28;20089;-67
2021/12/12 04:57:28;;;;;;;47.67;26.23;;;;;;;-142.75;100.00;78174.91;5049949;28;20129;-66
2021/12/12 05:00:05;;;;;;;45.70;25.23;;;;;;;-142.75;100.00;78196.59;5070276;28;20035;-66
2021/12/12 05:02:44;;;;;;;53.10;27.47;;;;;;;-142.75;100.00;78176.88;5071063;28;20120;-67
2021/12/12 05:05:39;;;;;;;49.53;25.93;;;;;;;-142.75;100.00;78178.84;5071079;28;20028;-66
2021/12/12 05:08:10;;;;;;;52.33;27.87;;;;;;;-142.75;100.00;78157.19;5070819;28;20060;-67
2021/12/12 05:10:43;;;;;;;51.87;28.47;;;;;;;-142.75;100.00;78147.34;5070045;28;20029;-67
2021/12/12 05:13:19;;;;;;;57.77;29.93;;;;;;;-142.75;100.00;78153.25;5052803;28;20032;-67
2021/12/12 05:15:46;;;;;;;;;;;;;;;-142.75;100.00;78161.13;5053403;28;20024;-67
2021/12/12 05:18:27;;;;;;;56.70;29.73;;;;;;;-142.75;100.00;78165.06;5070821;28;19923;-67
2021/12/12 05:21:08;;;;;;;55.43;30.23;;;;;;;-142.75;100.00;78165.06;5069861;28;20024;-66
2021/12/12 05:23:35;;;;;;;59.80;31.97;;;;;;;-142.75;100.00;78163.09;5070719;28;20055;-66
2021/12/12 05:26:12;;;;;;;56.53;31.13;;;;;;;-142.75;100.00;78161.13;5052655;28;20715;-66
2021/12/12 05:28:47;;;;;;;60.10;30.83;;;;;;;-142.75;100.00;78172.94;5070490;28;20513;-67
2021/12/12 05:31:14;;;;;;;59.93;32.13;;;;;;;-142.75;100.00;78159.16;5069868;28;20125;-67
2021/12/12 05:33:40;;;;;;;62.60;32.27;;;;;;;-142.75;100.00;78155.22;5070065;28;20028;-66
2021/12/12 05:36:11;;;;;;;71.47;33.50;;;;;;;-142.75;100.00;78165.06;5052289;28;20032;-67
2021/12/12 05:38:37;;;;;;;68.43;33.77;;;;;;;-142.75;100.00;78159.16;5052526;28;20016;-67
2021/12/12 05:41:03;;;;;;;64.50;32.20;;;;;;;-142.75;100.00;78161.13;5069194;28;20024;-67
2021/12/12 05:43:29;;;;;;;63.38;33.38;;;;;;;-142.75;100.00;78147.34;5070249;28;20391;-67
2021/12/12 05:45:54;;;;;;;68.07;31.73;;;;;;;-142.75;100.00;78151.28;5070254;28;20027;-66
2021/12/12 05:48:22;;;;;;;67.28;32.85;;;;;;;-142.75;100.00;78139.47;5070427;28;20029;-67
2021/12/12 05:50:49;;;;;;;67.63;34.20;;;;;;;-142.75;100.00;78141.44;5069411;28;20032;-67
2021/12/12 05:53:15;;;;;;;68.80;33.70;;;;;;;-142.75;100.00;78143.41;5069986;28;20044;-67
2021/12/12 05:55:41;;;;;;;;;;;;;;;-142.75;100.00;78149.31;5070414;28;20118;-67
2021/12/12 05:58:09;;;;;;;66.07;33.27;;;;;;;-142.75;100.00;78155.22;5052123;28;19912;-67
2021/12/12 06:00:40;;;;;;;70.37;32.40;;;;;;;-142.75;100.00;78145.38;5069121;28;20028;-67
2021/12/12 06:03:12;;;;;;;78.70;35.23;;;;;;;-142.75;100.00;78139.47;5069830;28;20025;-66
2021/12/12 06:05:38;;;;;;;70.50;34.73;;;;;;;-142.75;100.00;78157.19;5069328;28;20391;-67
2021/12/12 06:08:05;;;;;;;70.57;33.63;;;;;;;-142.75;100.00;78159.16;5069526;28;20033;-67
2021/12/12 06:10:34;;;;;;;76.53;36.10;;;;;;;-142.75;100.00;78161.13;5050963;28;20032;-66
2021/12/12 06:13:01;;;;;;;81.53;36.33;;;;;;;-142.75;100.00;78161.13;5069703;28;20035;-67
2021/12/12 06:15:28;;;;;;;76.93;34.27;;;;;;;-142.75;100.00;78165.06;5069640;28;20506;-66
2021/12/12 06:17:55;;;;;;;74.00;36.23;;;;;;;-142.75;100.00;78149.31;5069677;28;20016;-67
2021/12/12 06:20:21;;;;;;;75.13;36.03;;;;;;;-142.75;100.00;78141.44;5069080;28;20066;-66
2021/12/12 06:22:47;;;;;;;75.72;35.35;;;;;;;-142.75;100.00;78145.38;5069425;28;20024;-67
2021/12/12 06:25:13;;;;;;;;;;;;;;;-142.75;100.00;78147.34;5070082;28;20599;-67
2021/12/12 06:27:39;;;;;;;72.73;34.67;;;;;;;-142.75;100.00;78137.50;5069893;28;19981;-67
2021/12/12 06:30:07;;;;;;;;;;;;;;;-142.75;100.00;78145.38;5069115;28;20048;-67
2021/12/12 06:32:32;;;;;;;73.17;34.73;;;;;;;-142.75;100.00;78129.63;5069314;28;19913;-67
2021/12/12 06:34:58;;;;;;;87.38;38.08;;;;;;;-142.75;100.00;78129.63;5069371;28;20039;-66
2021/12/12 06:37:25;;;;;;;90.23;36.33;;;;;;;-142.75;100.00;78129.63;5069323;28;20686;-66
2021/12/12 06:39:52;;;;;;;88.53;36.83;;;;;;;-142.75;100.00;78121.75;5068778;28;20039;-67
2021/12/12 06:42:19;;;;;;;85.73;38.27;;;;;;;-142.75;100.00;78113.88;5069486;28;20110;-67
2021/12/12 06:44:44;;;;;;;85.20;35.87;;;;;;;-142.75;100.00;78121.75;5069377;28;20029;-67
2021/12/12 06:47:13;;;;;;;81.78;35.75;;;;;;;-142.75;100.00;78121.75;5069129;28;20430;-67
2021/12/12 06:49:39;;;;;;;94.07;38.00;;;;;;;-142.75;100.00;78109.94;5068499;28;20742;-66
2021/12/12 06:52:06;;;;;;;;;;;;;;;-142.75;100.00;78113.88;5069680;28;20021;-67
2021/12/12 06:54:32;;;;;;;81.50;34.13;;;;;;;-142.75;100.00;78109.94;5069046;28;19920;-67
2021/12/12 06:57:00;;;;;;;;;;;;;;;-142.75;100.00;78109.94;5069693;28;20029;-67
2021/12/12 06:59:30;;;;;;;89.83;34.77;;;;;;;-142.75;100.00;78113.88;5068949;28;20029;-67
2021/12/12 07:01:56;;;;;;;78.43;34.20;;;;;;;-142.75;100.00;78129.63;5068433;28;20064;-66
2021/12/12 07:04:22;;;;;;;85.00;36.10;;;;;;;-142.75;100.00;78117.81;5051303;28;20066;-67
2021/12/12 07:06:52;;;;;;;83.35;33.97;;;;;;;-142.75;100.00;78115.84;5051280;28;20699;-66
2021/12/12 07:09:17;;;;;;;90.13;35.47;;;;;;;-142.75;100.00;78107.97;5069301;28;20417;-67
2021/12/12 07:11:44;;;;;;;76.85;34.25;;;;;;;-142.75;100.00;78092.22;5068280;28;20036;-67
2021/12/12 07:14:11;;;;;;;77.50;33.97;;;;;;;-142.75;100.00;78090.25;5069017;28;20043;-67
2021/12/12 07:16:38;;;;;;;83.57;32.73;;;;;;;-142.75;100.00;78092.22;5066718;28;20024;-67
2021/12/12 07:19:05;;;;;;;105.87;35.67;;;;;;;-142.75;100.00;78096.16;5054875;28;20020;-67
2021/12/12 07:21:31;;;;;;;91.73;35.17;;;;;;;-142.75;100.00;78092.22;5072279;28;20051;-66
2021/12/12 07:23:59;;;;;;;89.03;35.13;;;;;;;-142.75;100.00;78092.22;5072819;28;20508;-66
2021/12/12 07:26:25;;;;;;;94.80;36.60;;;;;;;-142.75;100.00;78094.19;5054977;28;20531;-67
2021/12/12 07:28:55;;;;;;;83.20;35.67;;;;;;;-142.75;100.00;78094.19;5072961;28;20017;-67
2021/12/12 07:31:24;;;;;;;78.60;33.30;;;;;;;-142.75;100.00;78096.16;5072068;28;20024;-67
2021/12/12 07:33:53;;;;;;;78.83;34.23;;;;;;;-142.75;100.00;78094.19;5055117;28;20032;-67
2021/12/12 07:36:21;;;;;;;89.60;35.77;;;;;;;-142.75;100.00;78088.28;5073057;28;20036;-66
2021/12/12 07:38:53;;;;;;;87.60;35.53;;;;;;;-142.75;100.00;78094.19;5072651;28;20031;-67
2021/12/12 07:41:23;;;;;;;80.03;34.30;;;;;;;-142.75;100.00;78090.25;5055150;22;20128;-66
2021/12/12 07:43:50;;;;;;;86.93;35.13;;;;;;;-142.75;100.00;78086.31;5052904;28;20032;-66
2021/12/12 07:46:16;;;;;;;87.63;35.33;;;;;;;-142.75;100.00;78094.19;5034666;28;20447;-65
2021/12/12 07:48:46;;;;;;;77.95;34.00;;;;;;;-142.75;100.00;78098.13;5034516;28;20029;-65
2021/12/12 07:51:12;;;;;;;86.37;34.57;;;;;;;-142.75;100.00;78096.16;5051570;28;20478;-65
2021/12/12 07:53:38;;;;;;;89.32;36.30;;;;;;;-142.75;100.00;78098.13;5052383;28;20082;-65
2021/12/12 07:56:04;;;;;;;;;;;;;;;-142.75;100.00;78107.97;5052770;28;20075;-66
2021/12/12 07:58:29;;;;;;;78.53;32.00;;;;;;;-142.75;100.00;78102.06;5052353;28;19956;-65
2021/12/12 08:00:57;;;;;;;89.60;33.45;;;;;;;-142.75;100.00;78109.94;5033534;28;20087;-65
2021/12/12 08:03:27;;;;;;;96.10;36.73;;;;;;;-142.75;100.00;78090.25;5052165;28;20087;-65
2021/12/12 08:05:54;;;;;;;95.23;36.60;;;;;;;-142.75;100.00;78102.06;5052405;28;20029;-66
2021/12/12 08:08:19;;;;;;;93.60;35.93;;;;;;;-142.75;100.00;78102.06;5062125;28;20371;-66
2021/12/12 08:10:47;;;;;;;93.03;34.95;;;;;;;-142.75;100.00;78094.19;5051094;28;20486;-66
2021/12/12 08:13:14;;;;;;;107.57;36.37;;;;;;;-142.75;100.00;78090.25;5052073;28;20510;-66
2021/12/12 08:15:40;;;;;;;96.00;34.83;;;;;;;-142.75;100.00;78090.25;5051896;28;20483;-66
2021/12/12 08:18:09;;;;;;;103.17;35.67;;;;;;;-142.75;100.00;78102.06;5051994;28;20017;-66
2021/12/12 08:20:36;;;;;;;95.23;35.60;;;;;;;-142.75;100.00;78106.00;5051122;28;20070;-66
2021/12/12 08:23:02;;;;;;;100.90;36.33;;;;;;;-142.75;100.00;78100.09;5051676;28;20107;-66
2021/12/12 08:25:29;;;;;;;90.93;33.93;;;;;;;-142.75;100.00;78088.28;5051672;28;20048;-66
2021/12/12 08:28:00;;;;;;;90.37;35.53;;;;;;;-142.75;100.00;78092.22;5051049;28;20151;-66
2021/12/12 08:30:26;;;;;;;82.27;33.30;;;;;;;-142.75;100.00;78098.13;5050850;28;20032;-67
2021/12/12 08:32:52;;;;;;;;;;;;;;;-142.75;100.00;78088.28;5052131;28;20098;-66
2021/12/12 08:35:19;;;;;;;87.50;31.63;;;;;;;-142.75;100.00;78088.28;5051820;28;19959;-66
2021/12/12 08:37:46;;;;;;;87.45;33.05;;;;;;;-142.75;100.00;78072.53;5051433;28;20035;-67
2021/12/12 08:40:18;;;;;;;109.75;33.58;;;;;;;-142.75;100.00;78082.38;5050500;28;20036;-67
2021/12/12 08:42:44;;;;;;;75.63;31.40;;;;;;;-142.75;100.00;78070.56;5033583;28;20033;-66
2021/12/12 08:45:12;;;;;;;83.60;32.78;;;;;;;-142.75;100.00;78058.72;5051447;28;20028;-66
2021/12/12 08:47:39;;;;;;;68.03;29.73;;;;;;;-142.75;100.00;78064.66;5050077;28;20111;-66
2021/12/12 08:50:07;;;;;;;74.50;29.97;;;;;;;-142.75;100.00;78080.41;5050378;28;20070;-66
2021/12/12 08:52:38;;;;;;;84.50;31.67;;;;;;;-142.75;100.00;78076.47;5033353;28;20108;-66
2021/12/12 08:55:18;;;;;;;65.83;29.87;;;;;;;-142.75;100.00;78078.44;5051253;28;20045;-66
2021/12/12 08:58:05;;;;;;;63.88;28.08;;;;;;;-142.75;100.00;78082.38;5051286;28;20060;-66
2021/12/12 09:00:34;;;;;;;;;;;;;;;-142.75;100.00;78082.38;5050786;28;20017;-67
2021/12/12 09:02:59;;;;;;;58.50;27.20;;;;;;;-142.75;100.00;78098.13;5052314;28;19920;-66
2021/12/12 09:05:31;;;;;;;57.90;25.20;;;;;;;-142.75;100.00;78098.13;5052581;28;20020;-66
2021/12/12 09:08:02;;;;;;;61.83;25.83;;;;;;;-142.75;100.00;78094.19;5052483;28;20469;-66
2021/12/12 09:10:38;;;;;;;63.47;25.02;;;;;;;-142.75;100.00;78086.31;5052188;28;20414;-66
2021/12/12 09:13:12;;;;;;;55.95;25.48;;;;;;;-142.75;100.00;78066.63;5052405;28;20410;-66
2021/12/12 09:15:42;;;;;;;53.23;23.43;;;;;;;-142.75;100.00;78066.63;5053653;28;20024;-65
2021/12/12 09:18:13;;;;;;;53.07;24.30;;;;;;;-142.75;100.00;78064.66;5054644;28;20021;-66
2021/12/12 09:20:50;;;;;;;54.30;25.90;;;;;;;-142.75;100.00;78064.66;5033316;28;20024;-66
2021/12/12 09:23:29;;;;;;;52.95;23.40;;;;;;;-142.75;100.00;78070.56;5052333;28;20021;-66
2021/12/12 09:26:03;;;;;;;51.92;24.25;;;;;;;-142.75;100.00;78066.63;5034310;28;20031;-66
2021/12/12 09:28:55;;;;;;;44.45;23.92;;;;;;;-142.75;100.00;78068.59;5052175;28;20021;-66
2021/12/12 09:31:45;;;;;;;45.85;22.38;;;;;;;-142.75;100.00;78074.50;5051825;28;20535;-66
2021/12/12 09:34:36;;;;;;;40.28;21.27;;;;;;;-142.75;100.00;78076.47;5050842;28;20029;-69
2021/12/12 09:37:12;;;;;;;40.00;20.70;;;;;;;-142.75;100.00;78070.56;5052058;28;20020;-67
2021/12/12 09:39:44;;;;;;;36.63;19.25;;;;;;;-142.75;100.00;78074.50;5051048;28;20021;-67
2021/12/12 09:42:28;;;;;;;37.65;18.63;;;;;;;-142.75;100.00;78074.50;5049003;28;20021;-67
2021/12/12 09:45:03;;;;;;;34.53;18.50;;;;;;;-142.75;100.00;78072.53;5050334;28;20032;-67
2021/12/12 09:51:14;;;;;;;33.17;17.58;;;;;;;-142.75;100.00;78078.44;5049350;28;20477;-67
2021/12/12 09:54:20;;;;;;;37.63;18.47;;;;;;;-142.75;100.00;78074.50;5050146;28;20029;-67
2021/12/12 09:57:02;;;;;;;36.13;18.10;;;;;;;-142.75;100.00;78076.47;5050067;28;20585;-67
2021/12/12 10:00:02;;;;;;;37.88;17.45;;;;;;;-142.75;100.00;78066.63;5031989;28;20046;-67
2021/12/12 10:02:59;;;;;;;31.60;16.83;;;;;;;-142.75;100.00;78066.63;5049934;28;20025;-67
2021/12/12 10:05:27;;;;;;;32.97;16.67;;;;;;;-142.75;100.00;78066.63;5049837;28;20029;-67
2021/12/12 10:08:22;;;;;;;29.95;16.45;;;;;;;-142.75;100.00;78048.88;5048412;28;20033;-67
2021/12/12 10:11:01;;;;;;;30.55;16.27;;;;;;;-142.75;100.00;78046.91;5048162;28;20471;-67
2021/12/12 10:13:50;;;;;;;27.00;16.02;;;;;;;-142.75;100.00;78050.84;5049772;28;20029;-66
2021/12/12 10:16:16;;;;;;;29.50;15.47;;;;;;;-142.75;100.00;78062.69;5049532;28;20399;-66
2021/12/12 10:18:53;;;;;;;28.63;16.67;;;;;;;-142.75;100.00;78042.97;5049761;28;20021;-66
2021/12/12 10:21:30;;;;;;;27.42;15.68;;;;;;;-142.75;100.00;78035.09;5047938;28;20337;-66
2021/12/12 10:24:26;;;;;;;32.38;16.88;;;;;;;-142.75;100.00;78023.28;5049687;28;20090;-66
2021/12/12 10:27:22;;;;;;;30.10;16.40;;;;;;;-142.75;100.00;78025.25;5049684;28;20033;-66
2021/12/12 10:30:02;;;;;;;31.10;16.48;;;;;;;-142.75;100.00;78023.28;5049167;28;20033;-66
2021/12/12 10:32:34;;;;;;;33.85;17.70;;;;;;;-142.75;100.00;78015.41;5048256;28;20024;-66
2021/12/12 10:35:10;;;;;;;30.77;16.55;;;;;;;-142.75;100.00;77991.78;5048086;28;20379;-66
2021/12/12 10:37:54;;;;;;;24.75;15.40;;;;;;;-142.75;100.00;77995.72;5048419;28;20083;-66
2021/12/12 10:40:59;;;;;;;27.77;15.10;;;;;;;-142.75;100.00;77979.97;5047887;28;20024;-67
2021/12/12 10:43:33;;;;;;;32.25;15.50;;;;;;;-142.75;100.00;77979.97;5004187;28;20103;-66
2021/12/12 10:46:10;;;;;;;29.73;15.32;;;;;;;-142.75;100.00;77991.78;5040633;28;20569;-67
2021/12/12 10:48:45;;;;;;;26.30;15.35;;;;;;;-142.75;100.00;77979.97;5068200;28;20032;-66
2021/12/12 10:51:16;;;;;;;24.55;14.00;;;;;;;-142.75;100.00;77995.72;5049404;28;20344;-66
2021/12/12 10:53:49;;;;;;;26.65;14.50;;;;;;;-142.75;100.00;77999.66;5068289;28;20046;-66
2021/12/12 10:56:37;;;;;;;23.50;14.38;;;;;;;-142.75;100.00;77974.06;5050503;28;20374;-67
2021/12/12 10:59:14;;;;;;;24.75;13.95;;;;;;;-142.75;100.00;77970.13;5068091;28;20154;-66
2021/12/12 11:01:42;;;;;;;;;;;;;;;-142.75;100.00;77966.19;5029035;28;20052;-66
2021/12/12 11:04:16;;;;;;;23.77;13.32;;;;;;;-142.75;100.00;77970.13;5047927;28;20274;-67
2021/12/12 11:06:58;;;;;;;21.80;13.07;;;;;;;-142.75;100.00;77960.28;5048367;28;20119;-66
2021/12/12 11:09:30;;;;;;;21.15;12.35;;;;;;;-142.75;100.00;77954.38;5047078;28;20501;-66
2021/12/12 11:12:10;;;;;;;22.98;13.07;;;;;;;-142.75;100.00;77952.41;5047529;28;20021;-66
2021/12/12 11:14:53;;;;;;;21.42;12.52;;;;;;;-142.75;100.00;77964.22;5048191;28;20020;-66
2021/12/12 11:17:27;;;;;;;20.63;11.93;;;;;;;-142.75;100.00;77962.25;5029970;28;20372;-67
2021/12/12 11:19:58;;;;;;;20.40;12.07;;;;;;;-142.75;100.00;77956.34;5029625;28;20058;-67
2021/12/12 11:22:29;;;;;;;21.80;12.18;;;;;;;-142.75;100.00;77964.22;5047857;28;20399;-66
2021/12/12 11:25:09;;;;;;;22.60;11.50;;;;;;;-142.75;100.00;77952.41;5047770;28;20025;-66
2021/12/12 11:27:42;;;;;;;16.38;11.00;;;;;;;-142.75;100.00;77948.47;5048063;28;20029;-66
2021/12/12 11:30:21;;;;;;;18.85;11.70;;;;;;;-142.75;100.00;77940.59;5050012;28;20036;-66
2021/12/12 11:32:50;;;;;;;17.60;11.10;;;;;;;-142.75;100.00;77944.53;5048077;28;20024;-66
2021/12/12 11:35:18;;;;;;;16.48;10.35;;;;;;;-142.75;100.00;77940.59;5047673;28;20031;-67
2021/12/12 11:38:11;;;;;;;18.88;11.23;;;;;;;-142.75;100.00;77936.66;5029627;28;20028;-66
2021/12/12 11:40:48;;;;;;;17.70;11.32;;;;;;;-142.75;100.00;77918.94;5035409;28;20517;-66